sensor_id;sensor_type;location;lat;lon;timestamp;P1;durP1;ratioP1;P2;durP2;ratioP2
78740;SDS011;68062;48.726;9.370;2023-04-25T00:00:23;2.60;;;2.40;;
78740;SDS011;68062;48.726;9.370;2023-04-25T00:02:50;4.03;;;3.03;;
78740;SDS011;68062;48.726;9.370;2023-04-25T00:05:17;3.50;;;2.90;;
78740;SDS011;68062;48.726;9.370;2023-04-25T00:07:44;2.60;;;2.40;;
78740;SDS011;68062;48.726;9.370;2023-04-25T00:10:12;3.60;;;3.40;;
78740;SDS011;68062;48.726;9.370;2023-04-25T00:12:41;3.57;;;3.00;;
78740;SDS011;68062;48.726;9.370;2023-04-25T00:15:08;2.87;;;2.60;;
78740;SDS011;68062;48.726;9.370;2023-04-25T00:17:36;2.90;;;2.70;;
78740;SDS011;68062;48.726;9.370;2023-04-25T00:20:03;5.07;;;3.30;;
78740;SDS011;68062;48.726;9.370;2023-04-25T00:22:34;3.77;;;3.17;;
78740;SDS011;68062;48.726;9.370;2023-04-25T00:25:02;3.20;;;3.03;;
78740;SDS011;68062;48.726;9.370;2023-04-25T00:27:29;2.90;;;2.70;;
78740;SDS011;68062;48.726;9.370;2023-04-25T00:29:57;3.70;;;3.33;;
78740;SDS011;68062;48.726;9.370;2023-04-25T00:32:24;5.10;;;3.97;;
78740;SDS011;68062;48.726;9.370;2023-04-25T00:34:51;3.77;;;3.47;;
78740;SDS011;68062;48.726;9.370;2023-04-25T00:37:18;4.17;;;3.23;;
78740;SDS011;68062;48.726;9.370;2023-04-25T00:39:45;3.10;;;2.80;;
78740;SDS011;68062;48.726;9.370;2023-04-25T00:42:12;6.00;;;3.60;;
78740;SDS011;68062;48.726;9.370;2023-04-25T00:44:39;3.40;;;2.87;;
78740;SDS011;68062;48.726;9.370;2023-04-25T00:47:07;5.27;;;3.40;;
78740;SDS011;68062;48.726;9.370;2023-04-25T00:49:34;6.90;;;3.20;;
78740;SDS011;68062;48.726;9.370;2023-04-25T00:52:01;3.07;;;2.80;;
78740;SDS011;68062;48.726;9.370;2023-04-25T00:54:28;4.07;;;3.67;;
78740;SDS011;68062;48.726;9.370;2023-04-25T00:56:56;6.43;;;3.50;;
78740;SDS011;68062;48.726;9.370;2023-04-25T00:59:23;3.37;;;3.23;;
78740;SDS011;68062;48.726;9.370;2023-04-25T01:01:50;3.30;;;3.00;;
78740;SDS011;68062;48.726;9.370;2023-04-25T01:04:18;3.90;;;3.00;;
78740;SDS011;68062;48.726;9.370;2023-04-25T01:06:45;6.07;;;2.60;;
78740;SDS011;68062;48.726;9.370;2023-04-25T01:09:12;3.53;;;3.03;;
78740;SDS011;68062;48.726;9.370;2023-04-25T01:11:40;4.40;;;3.00;;
78740;SDS011;68062;48.726;9.370;2023-04-25T01:14:06;3.77;;;3.57;;
78740;SDS011;68062;48.726;9.370;2023-04-25T01:16:34;5.10;;;2.97;;
78740;SDS011;68062;48.726;9.370;2023-04-25T01:19:04;4.00;;;3.40;;
78740;SDS011;68062;48.726;9.370;2023-04-25T01:21:36;4.57;;;3.03;;
78740;SDS011;68062;48.726;9.370;2023-04-25T01:24:03;7.90;;;3.60;;
78740;SDS011;68062;48.726;9.370;2023-04-25T01:26:30;4.20;;;2.83;;
78740;SDS011;68062;48.726;9.370;2023-04-25T01:28:58;3.30;;;3.20;;
78740;SDS011;68062;48.726;9.370;2023-04-25T01:31:26;5.23;;;3.33;;
78740;SDS011;68062;48.726;9.370;2023-04-25T01:33:53;3.33;;;3.13;;
78740;SDS011;68062;48.726;9.370;2023-04-25T01:36:20;3.07;;;2.83;;
78740;SDS011;68062;48.726;9.370;2023-04-25T01:38:49;3.80;;;3.60;;
78740;SDS011;68062;48.726;9.370;2023-04-25T01:41:16;4.83;;;3.37;;
78740;SDS011;68062;48.726;9.370;2023-04-25T01:43:44;3.57;;;3.07;;
78740;SDS011;68062;48.726;9.370;2023-04-25T01:46:11;3.20;;;3.00;;
78740;SDS011;68062;48.726;9.370;2023-04-25T01:48:38;4.33;;;2.90;;
78740;SDS011;68062;48.726;9.370;2023-04-25T01:51:05;3.80;;;3.50;;
78740;SDS011;68062;48.726;9.370;2023-04-25T01:53:32;4.57;;;3.63;;
78740;SDS011;68062;48.726;9.370;2023-04-25T01:56:03;3.33;;;2.77;;
78740;SDS011;68062;48.726;9.370;2023-04-25T01:58:33;3.83;;;3.23;;
78740;SDS011;68062;48.726;9.370;2023-04-25T02:01:23;4.70;;;3.70;;
78740;SDS011;68062;48.726;9.370;2023-04-25T02:04:09;4.70;;;3.97;;
78740;SDS011;68062;48.726;9.370;2023-04-25T02:06:37;5.33;;;3.07;;
78740;SDS011;68062;48.726;9.370;2023-04-25T02:09:05;6.20;;;3.00;;
78740;SDS011;68062;48.726;9.370;2023-04-25T02:11:34;4.90;;;3.50;;
78740;SDS011;68062;48.726;9.370;2023-04-25T02:14:27;4.43;;;3.70;;
78740;SDS011;68062;48.726;9.370;2023-04-25T02:17:16;4.13;;;3.67;;
78740;SDS011;68062;48.726;9.370;2023-04-25T02:19:44;4.33;;;3.60;;
78740;SDS011;68062;48.726;9.370;2023-04-25T02:22:11;3.93;;;3.73;;
78740;SDS011;68062;48.726;9.370;2023-04-25T02:24:38;4.00;;;3.90;;
78740;SDS011;68062;48.726;9.370;2023-04-25T02:27:08;6.07;;;3.20;;
78740;SDS011;68062;48.726;9.370;2023-04-25T02:29:35;4.63;;;3.70;;
78740;SDS011;68062;48.726;9.370;2023-04-25T02:32:01;5.13;;;3.70;;
78740;SDS011;68062;48.726;9.370;2023-04-25T02:34:28;9.70;;;4.07;;
78740;SDS011;68062;48.726;9.370;2023-04-25T02:36:54;3.67;;;3.50;;
78740;SDS011;68062;48.726;9.370;2023-04-25T02:39:21;4.20;;;3.40;;
78740;SDS011;68062;48.726;9.370;2023-04-25T02:41:50;5.57;;;3.73;;
78740;SDS011;68062;48.726;9.370;2023-04-25T02:44:19;3.77;;;3.40;;
78740;SDS011;68062;48.726;9.370;2023-04-25T02:46:46;4.73;;;3.50;;
78740;SDS011;68062;48.726;9.370;2023-04-25T02:49:12;4.37;;;4.07;;
78740;SDS011;68062;48.726;9.370;2023-04-25T02:51:39;4.17;;;3.60;;
78740;SDS011;68062;48.726;9.370;2023-04-25T02:54:07;5.90;;;3.43;;
78740;SDS011;68062;48.726;9.370;2023-04-25T02:56:38;4.47;;;3.67;;
78740;SDS011;68062;48.726;9.370;2023-04-25T02:59:09;6.33;;;4.00;;
78740;SDS011;68062;48.726;9.370;2023-04-25T03:01:38;4.47;;;3.27;;
78740;SDS011;68062;48.726;9.370;2023-04-25T03:04:04;4.20;;;3.70;;
78740;SDS011;68062;48.726;9.370;2023-04-25T03:06:31;3.87;;;3.67;;
78740;SDS011;68062;48.726;9.370;2023-04-25T03:08:57;3.50;;;3.33;;
78740;SDS011;68062;48.726;9.370;2023-04-25T03:11:25;4.53;;;3.50;;
78740;SDS011;68062;48.726;9.370;2023-04-25T03:13:52;4.30;;;4.00;;
78740;SDS011;68062;48.726;9.370;2023-04-25T03:16:19;5.30;;;3.57;;
78740;SDS011;68062;48.726;9.370;2023-04-25T03:18:48;3.63;;;3.47;;
78740;SDS011;68062;48.726;9.370;2023-04-25T03:21:15;4.50;;;2.93;;
78740;SDS011;68062;48.726;9.370;2023-04-25T03:23:42;3.67;;;3.50;;
78740;SDS011;68062;48.726;9.370;2023-04-25T03:26:09;4.90;;;3.63;;
78740;SDS011;68062;48.726;9.370;2023-04-25T03:28:36;3.67;;;3.30;;
78740;SDS011;68062;48.726;9.370;2023-04-25T03:31:03;7.23;;;4.13;;
78740;SDS011;68062;48.726;9.370;2023-04-25T03:33:29;4.90;;;4.40;;
78740;SDS011;68062;48.726;9.370;2023-04-25T03:35:58;9.13;;;4.33;;
78740;SDS011;68062;48.726;9.370;2023-04-25T03:38:26;5.70;;;4.40;;
78740;SDS011;68062;48.726;9.370;2023-04-25T03:40:53;5.43;;;3.80;;
78740;SDS011;68062;48.726;9.370;2023-04-25T03:43:26;6.50;;;4.20;;
78740;SDS011;68062;48.726;9.370;2023-04-25T03:46:00;7.10;;;4.47;;
78740;SDS011;68062;48.726;9.370;2023-04-25T03:48:27;3.97;;;3.80;;
78740;SDS011;68062;48.726;9.370;2023-04-25T03:50:54;5.07;;;3.80;;
78740;SDS011;68062;48.726;9.370;2023-04-25T03:53:23;4.93;;;3.67;;
78740;SDS011;68062;48.726;9.370;2023-04-25T03:56:09;4.90;;;4.47;;
78740;SDS011;68062;48.726;9.370;2023-04-25T03:58:37;3.90;;;3.53;;
78740;SDS011;68062;48.726;9.370;2023-04-25T04:01:04;4.90;;;4.30;;
78740;SDS011;68062;48.726;9.370;2023-04-25T04:03:36;4.43;;;3.80;;
78740;SDS011;68062;48.726;9.370;2023-04-25T04:06:03;6.13;;;5.03;;
78740;SDS011;68062;48.726;9.370;2023-04-25T04:08:35;3.93;;;3.80;;
78740;SDS011;68062;48.726;9.370;2023-04-25T04:11:02;8.97;;;5.00;;
78740;SDS011;68062;48.726;9.370;2023-04-25T04:13:29;6.63;;;4.00;;
78740;SDS011;68062;48.726;9.370;2023-04-25T04:15:56;6.67;;;4.13;;
78740;SDS011;68062;48.726;9.370;2023-04-25T04:18:23;4.90;;;3.70;;
78740;SDS011;68062;48.726;9.370;2023-04-25T04:20:50;5.47;;;4.83;;
78740;SDS011;68062;48.726;9.370;2023-04-25T04:23:17;5.93;;;3.73;;
78740;SDS011;68062;48.726;9.370;2023-04-25T04:25:44;4.93;;;3.97;;
78740;SDS011;68062;48.726;9.370;2023-04-25T04:28:28;3.40;;;3.20;;
78740;SDS011;68062;48.726;9.370;2023-04-25T04:31:14;4.97;;;3.90;;
78740;SDS011;68062;48.726;9.370;2023-04-25T04:33:43;5.07;;;4.60;;
78740;SDS011;68062;48.726;9.370;2023-04-25T04:36:10;4.00;;;3.70;;
78740;SDS011;68062;48.726;9.370;2023-04-25T04:38:37;6.60;;;3.80;;
78740;SDS011;68062;48.726;9.370;2023-04-25T04:41:05;3.90;;;3.70;;
78740;SDS011;68062;48.726;9.370;2023-04-25T04:43:52;7.30;;;4.23;;
78740;SDS011;68062;48.726;9.370;2023-04-25T04:46:39;6.50;;;4.00;;
78740;SDS011;68062;48.726;9.370;2023-04-25T04:49:36;6.20;;;4.07;;
78740;SDS011;68062;48.726;9.370;2023-04-25T04:52:21;9.03;;;4.63;;
78740;SDS011;68062;48.726;9.370;2023-04-25T04:54:58;5.00;;;3.83;;
78740;SDS011;68062;48.726;9.370;2023-04-25T04:57:46;4.83;;;4.03;;
78740;SDS011;68062;48.726;9.370;2023-04-25T05:00:37;5.90;;;4.40;;
78740;SDS011;68062;48.726;9.370;2023-04-25T05:03:11;4.70;;;4.40;;
78740;SDS011;68062;48.726;9.370;2023-04-25T05:06:05;4.33;;;3.90;;
78740;SDS011;68062;48.726;9.370;2023-04-25T05:08:54;5.03;;;3.70;;
78740;SDS011;68062;48.726;9.370;2023-04-25T05:11:45;6.10;;;3.37;;
78740;SDS011;68062;48.726;9.370;2023-04-25T05:14:29;4.63;;;3.73;;
78740;SDS011;68062;48.726;9.370;2023-04-25T05:17:12;5.60;;;3.90;;
78740;SDS011;68062;48.726;9.370;2023-04-25T05:20:14;6.13;;;4.50;;
78740;SDS011;68062;48.726;9.370;2023-04-25T05:22:59;4.90;;;4.60;;
78740;SDS011;68062;48.726;9.370;2023-04-25T05:25:52;4.57;;;4.30;;
78740;SDS011;68062;48.726;9.370;2023-04-25T05:28:45;4.70;;;4.40;;
78740;SDS011;68062;48.726;9.370;2023-04-25T05:31:25;5.57;;;4.50;;
78740;SDS011;68062;48.726;9.370;2023-04-25T05:33:57;6.30;;;5.27;;
78740;SDS011;68062;48.726;9.370;2023-04-25T05:36:32;7.20;;;4.53;;
78740;SDS011;68062;48.726;9.370;2023-04-25T05:38:59;5.67;;;4.03;;
78740;SDS011;68062;48.726;9.370;2023-04-25T05:41:59;7.30;;;4.90;;
78740;SDS011;68062;48.726;9.370;2023-04-25T05:44:44;8.00;;;4.40;;
78740;SDS011;68062;48.726;9.370;2023-04-25T05:47:23;5.17;;;4.87;;
78740;SDS011;68062;48.726;9.370;2023-04-25T05:50:13;6.67;;;5.23;;
78740;SDS011;68062;48.726;9.370;2023-04-25T05:52:50;6.20;;;4.37;;
78740;SDS011;68062;48.726;9.370;2023-04-25T05:55:26;4.80;;;3.90;;
78740;SDS011;68062;48.726;9.370;2023-04-25T05:57:53;7.90;;;5.83;;
78740;SDS011;68062;48.726;9.370;2023-04-25T06:00:21;7.20;;;4.87;;
78740;SDS011;68062;48.726;9.370;2023-04-25T06:02:50;6.63;;;4.83;;
78740;SDS011;68062;48.726;9.370;2023-04-25T06:05:17;4.83;;;4.40;;
78740;SDS011;68062;48.726;9.370;2023-04-25T06:07:46;6.90;;;4.80;;
78740;SDS011;68062;48.726;9.370;2023-04-25T06:10:13;4.37;;;3.20;;
78740;SDS011;68062;48.726;9.370;2023-04-25T06:12:41;6.30;;;3.43;;
78740;SDS011;68062;48.726;9.370;2023-04-25T06:15:08;5.43;;;4.13;;
78740;SDS011;68062;48.726;9.370;2023-04-25T06:17:35;4.60;;;3.80;;
78740;SDS011;68062;48.726;9.370;2023-04-25T06:20:04;10.30;;;3.80;;
78740;SDS011;68062;48.726;9.370;2023-04-25T06:22:32;4.13;;;3.50;;
78740;SDS011;68062;48.726;9.370;2023-04-25T06:24:59;5.80;;;3.50;;
78740;SDS011;68062;48.726;9.370;2023-04-25T06:27:26;3.50;;;3.40;;
78740;SDS011;68062;48.726;9.370;2023-04-25T06:29:53;3.60;;;3.37;;
78740;SDS011;68062;48.726;9.370;2023-04-25T06:32:20;3.60;;;2.90;;
78740;SDS011;68062;48.726;9.370;2023-04-25T06:34:47;2.80;;;2.60;;
78740;SDS011;68062;48.726;9.370;2023-04-25T06:37:15;2.73;;;2.53;;
78740;SDS011;68062;48.726;9.370;2023-04-25T06:39:42;3.97;;;3.17;;
78740;SDS011;68062;48.726;9.370;2023-04-25T06:42:09;2.90;;;2.70;;
78740;SDS011;68062;48.726;9.370;2023-04-25T06:44:44;7.87;;;2.83;;
78740;SDS011;68062;48.726;9.370;2023-04-25T06:47:11;3.00;;;2.70;;
78740;SDS011;68062;48.726;9.370;2023-04-25T06:49:39;2.77;;;2.30;;
78740;SDS011;68062;48.726;9.370;2023-04-25T06:52:07;3.67;;;3.10;;
78740;SDS011;68062;48.726;9.370;2023-04-25T06:54:37;3.33;;;2.80;;
78740;SDS011;68062;48.726;9.370;2023-04-25T06:57:15;3.50;;;3.30;;
78740;SDS011;68062;48.726;9.370;2023-04-25T06:59:42;3.33;;;2.70;;
78740;SDS011;68062;48.726;9.370;2023-04-25T07:02:09;3.10;;;2.50;;
78740;SDS011;68062;48.726;9.370;2023-04-25T07:04:37;2.93;;;2.67;;
78740;SDS011;68062;48.726;9.370;2023-04-25T07:07:05;3.30;;;2.77;;
78740;SDS011;68062;48.726;9.370;2023-04-25T07:09:45;4.03;;;3.83;;
78740;SDS011;68062;48.726;9.370;2023-04-25T07:12:12;3.63;;;3.23;;
78740;SDS011;68062;48.726;9.370;2023-04-25T07:14:39;3.07;;;2.70;;
78740;SDS011;68062;48.726;9.370;2023-04-25T07:17:07;3.63;;;3.43;;
78740;SDS011;68062;48.726;9.370;2023-04-25T07:19:34;3.83;;;3.40;;
78740;SDS011;68062;48.726;9.370;2023-04-25T07:22:04;3.03;;;2.83;;
78740;SDS011;68062;48.726;9.370;2023-04-25T07:24:32;3.70;;;3.00;;
78740;SDS011;68062;48.726;9.370;2023-04-25T07:27:00;3.40;;;2.80;;
78740;SDS011;68062;48.726;9.370;2023-04-25T07:29:46;4.30;;;2.50;;
78740;SDS011;68062;48.726;9.370;2023-04-25T07:32:13;3.00;;;2.80;;
78740;SDS011;68062;48.726;9.370;2023-04-25T07:34:41;4.40;;;2.97;;
78740;SDS011;68062;48.726;9.370;2023-04-25T07:37:08;3.90;;;3.70;;
78740;SDS011;68062;48.726;9.370;2023-04-25T07:39:43;4.77;;;3.60;;
78740;SDS011;68062;48.726;9.370;2023-04-25T07:42:12;4.27;;;3.87;;
78740;SDS011;68062;48.726;9.370;2023-04-25T07:44:42;4.83;;;3.03;;
78740;SDS011;68062;48.726;9.370;2023-04-25T07:47:10;2.90;;;2.53;;
78740;SDS011;68062;48.726;9.370;2023-04-25T07:49:37;5.67;;;3.70;;
78740;SDS011;68062;48.726;9.370;2023-04-25T07:52:05;5.63;;;3.43;;
78740;SDS011;68062;48.726;9.370;2023-04-25T07:54:35;4.70;;;3.50;;
78740;SDS011;68062;48.726;9.370;2023-04-25T07:57:10;7.83;;;4.50;;
78740;SDS011;68062;48.726;9.370;2023-04-25T07:59:40;4.10;;;3.57;;
78740;SDS011;68062;48.726;9.370;2023-04-25T08:02:07;4.03;;;3.80;;
78740;SDS011;68062;48.726;9.370;2023-04-25T08:04:35;6.17;;;4.00;;
78740;SDS011;68062;48.726;9.370;2023-04-25T08:07:04;3.90;;;2.93;;
78740;SDS011;68062;48.726;9.370;2023-04-25T08:09:39;3.50;;;3.30;;
78740;SDS011;68062;48.726;9.370;2023-04-25T08:12:12;3.90;;;3.70;;
78740;SDS011;68062;48.726;9.370;2023-04-25T08:14:41;6.40;;;3.80;;
78740;SDS011;68062;48.726;9.370;2023-04-25T08:17:09;5.00;;;3.90;;
78740;SDS011;68062;48.726;9.370;2023-04-25T08:19:39;5.53;;;3.20;;
78740;SDS011;68062;48.726;9.370;2023-04-25T08:22:10;6.33;;;3.50;;
78740;SDS011;68062;48.726;9.370;2023-04-25T08:24:47;5.23;;;4.07;;
78740;SDS011;68062;48.726;9.370;2023-04-25T08:27:16;3.73;;;3.53;;
78740;SDS011;68062;48.726;9.370;2023-04-25T08:29:44;4.37;;;3.83;;
78740;SDS011;68062;48.726;9.370;2023-04-25T08:32:11;3.50;;;3.00;;
78740;SDS011;68062;48.726;9.370;2023-04-25T08:34:46;6.70;;;5.13;;
78740;SDS011;68062;48.726;9.370;2023-04-25T08:37:13;5.03;;;3.73;;
78740;SDS011;68062;48.726;9.370;2023-04-25T08:39:49;4.37;;;3.97;;
78740;SDS011;68062;48.726;9.370;2023-04-25T08:42:36;4.33;;;3.43;;
78740;SDS011;68062;48.726;9.370;2023-04-25T08:45:06;5.17;;;4.00;;
78740;SDS011;68062;48.726;9.370;2023-04-25T08:47:37;7.73;;;4.10;;
78740;SDS011;68062;48.726;9.370;2023-04-25T08:50:07;4.40;;;4.17;;
78740;SDS011;68062;48.726;9.370;2023-04-25T08:52:36;5.90;;;4.93;;
78740;SDS011;68062;48.726;9.370;2023-04-25T08:55:04;5.00;;;4.40;;
78740;SDS011;68062;48.726;9.370;2023-04-25T08:57:36;5.40;;;4.77;;
78740;SDS011;68062;48.726;9.370;2023-04-25T09:00:04;6.23;;;5.03;;
78740;SDS011;68062;48.726;9.370;2023-04-25T09:02:36;8.00;;;4.83;;
78740;SDS011;68062;48.726;9.370;2023-04-25T09:05:03;7.43;;;4.90;;
78740;SDS011;68062;48.726;9.370;2023-04-25T09:07:31;8.87;;;5.57;;
78740;SDS011;68062;48.726;9.370;2023-04-25T09:09:58;8.27;;;5.43;;
78740;SDS011;68062;48.726;9.370;2023-04-25T09:12:28;7.90;;;5.90;;
78740;SDS011;68062;48.726;9.370;2023-04-25T09:15:07;7.20;;;5.17;;
78740;SDS011;68062;48.726;9.370;2023-04-25T09:18:01;8.67;;;5.30;;
78740;SDS011;68062;48.726;9.370;2023-04-25T09:20:33;7.63;;;5.57;;
78740;SDS011;68062;48.726;9.370;2023-04-25T09:23:07;6.63;;;5.73;;
78740;SDS011;68062;48.726;9.370;2023-04-25T09:25:36;6.80;;;5.90;;
78740;SDS011;68062;48.726;9.370;2023-04-25T09:28:06;9.90;;;6.77;;
78740;SDS011;68062;48.726;9.370;2023-04-25T09:30:35;7.73;;;6.37;;
78740;SDS011;68062;48.726;9.370;2023-04-25T09:33:27;9.60;;;6.40;;
78740;SDS011;68062;48.726;9.370;2023-04-25T09:36:01;6.43;;;6.07;;
78740;SDS011;68062;48.726;9.370;2023-04-25T09:38:59;6.90;;;6.37;;
78740;SDS011;68062;48.726;9.370;2023-04-25T09:41:28;9.70;;;6.23;;
78740;SDS011;68062;48.726;9.370;2023-04-25T09:43:58;9.10;;;7.13;;
78740;SDS011;68062;48.726;9.370;2023-04-25T09:46:34;8.83;;;6.53;;
78740;SDS011;68062;48.726;9.370;2023-04-25T09:49:06;8.53;;;6.40;;
78740;SDS011;68062;48.726;9.370;2023-04-25T09:51:56;9.63;;;6.07;;
78740;SDS011;68062;48.726;9.370;2023-04-25T09:54:26;9.07;;;6.57;;
78740;SDS011;68062;48.726;9.370;2023-04-25T09:57:04;7.93;;;6.20;;
78740;SDS011;68062;48.726;9.370;2023-04-25T09:59:36;11.60;;;6.00;;
78740;SDS011;68062;48.726;9.370;2023-04-25T10:02:07;7.47;;;7.13;;
78740;SDS011;68062;48.726;9.370;2023-04-25T10:04:38;9.50;;;6.57;;
78740;SDS011;68062;48.726;9.370;2023-04-25T10:07:18;9.10;;;6.30;;
78740;SDS011;68062;48.726;9.370;2023-04-25T10:09:47;10.20;;;7.60;;
78740;SDS011;68062;48.726;9.370;2023-04-25T10:12:16;11.53;;;6.77;;
78740;SDS011;68062;48.726;9.370;2023-04-25T10:14:43;6.90;;;5.83;;
78740;SDS011;68062;48.726;9.370;2023-04-25T10:17:13;8.13;;;6.50;;
78740;SDS011;68062;48.726;9.370;2023-04-25T10:19:43;9.63;;;6.83;;
78740;SDS011;68062;48.726;9.370;2023-04-25T10:22:11;9.80;;;7.17;;
78740;SDS011;68062;48.726;9.370;2023-04-25T10:24:41;10.03;;;6.93;;
78740;SDS011;68062;48.726;9.370;2023-04-25T10:27:09;9.43;;;8.30;;
78740;SDS011;68062;48.726;9.370;2023-04-25T10:29:37;9.30;;;7.40;;
78740;SDS011;68062;48.726;9.370;2023-04-25T10:32:08;9.00;;;6.73;;
78740;SDS011;68062;48.726;9.370;2023-04-25T10:34:40;9.70;;;7.20;;
78740;SDS011;68062;48.726;9.370;2023-04-25T10:37:08;9.63;;;6.50;;
78740;SDS011;68062;48.726;9.370;2023-04-25T10:39:37;6.57;;;5.37;;
78740;SDS011;68062;48.726;9.370;2023-04-25T10:42:05;5.90;;;4.67;;
78740;SDS011;68062;48.726;9.370;2023-04-25T10:44:32;6.10;;;4.50;;
78740;SDS011;68062;48.726;9.370;2023-04-25T10:47:00;7.87;;;5.63;;
78740;SDS011;68062;48.726;9.370;2023-04-25T10:49:32;9.23;;;6.03;;
78740;SDS011;68062;48.726;9.370;2023-04-25T10:52:24;6.10;;;5.17;;
78740;SDS011;68062;48.726;9.370;2023-04-25T10:54:55;6.47;;;5.53;;
78740;SDS011;68062;48.726;9.370;2023-04-25T10:57:26;5.97;;;4.90;;
78740;SDS011;68062;48.726;9.370;2023-04-25T10:59:57;7.27;;;4.50;;
78740;SDS011;68062;48.726;9.370;2023-04-25T11:02:26;4.37;;;3.50;;
78740;SDS011;68062;48.726;9.370;2023-04-25T11:04:53;4.43;;;3.80;;
78740;SDS011;68062;48.726;9.370;2023-04-25T11:07:25;4.90;;;3.33;;
78740;SDS011;68062;48.726;9.370;2023-04-25T11:10:01;4.83;;;3.00;;
78740;SDS011;68062;48.726;9.370;2023-04-25T11:12:30;5.07;;;3.10;;
78740;SDS011;68062;48.726;9.370;2023-04-25T11:14:58;4.30;;;2.60;;
78740;SDS011;68062;48.726;9.370;2023-04-25T11:17:26;2.33;;;1.63;;
78740;SDS011;68062;48.726;9.370;2023-04-25T11:19:53;2.77;;;2.23;;
78740;SDS011;68062;48.726;9.370;2023-04-25T11:22:21;2.40;;;2.10;;
78740;SDS011;68062;48.726;9.370;2023-04-25T11:24:50;2.23;;;2.00;;
78740;SDS011;68062;48.726;9.370;2023-04-25T11:27:17;3.80;;;2.13;;
78740;SDS011;68062;48.726;9.370;2023-04-25T11:29:43;2.43;;;2.30;;
78740;SDS011;68062;48.726;9.370;2023-04-25T11:32:10;1.57;;;1.50;;
78740;SDS011;68062;48.726;9.370;2023-04-25T11:34:36;1.47;;;1.37;;
78740;SDS011;68062;48.726;9.370;2023-04-25T11:37:03;2.00;;;1.73;;
78740;SDS011;68062;48.726;9.370;2023-04-25T11:39:31;2.27;;;1.97;;
78740;SDS011;68062;48.726;9.370;2023-04-25T11:41:59;1.30;;;1.20;;
78740;SDS011;68062;48.726;9.370;2023-04-25T11:44:26;1.47;;;1.37;;
78740;SDS011;68062;48.726;9.370;2023-04-25T11:46:54;1.70;;;1.43;;
78740;SDS011;68062;48.726;9.370;2023-04-25T11:49:21;2.93;;;1.60;;
78740;SDS011;68062;48.726;9.370;2023-04-25T11:51:49;1.63;;;1.53;;
78740;SDS011;68062;48.726;9.370;2023-04-25T11:54:17;1.80;;;1.57;;
78740;SDS011;68062;48.726;9.370;2023-04-25T11:56:43;1.53;;;1.40;;
78740;SDS011;68062;48.726;9.370;2023-04-25T11:59:13;1.60;;;1.43;;
78740;SDS011;68062;48.726;9.370;2023-04-25T12:01:48;2.00;;;1.50;;
78740;SDS011;68062;48.726;9.370;2023-04-25T12:04:16;1.23;;;1.17;;
78740;SDS011;68062;48.726;9.370;2023-04-25T12:06:45;2.00;;;1.20;;
78740;SDS011;68062;48.726;9.370;2023-04-25T12:09:13;2.70;;;1.63;;
78740;SDS011;68062;48.726;9.370;2023-04-25T12:11:43;1.83;;;1.60;;
78740;SDS011;68062;48.726;9.370;2023-04-25T12:14:10;4.90;;;2.80;;
78740;SDS011;68062;48.726;9.370;2023-04-25T12:16:43;4.00;;;2.33;;
78740;SDS011;68062;48.726;9.370;2023-04-25T12:19:13;1.40;;;1.30;;
78740;SDS011;68062;48.726;9.370;2023-04-25T12:21:41;2.20;;;1.93;;
78740;SDS011;68062;48.726;9.370;2023-04-25T12:24:11;2.80;;;2.00;;
78740;SDS011;68062;48.726;9.370;2023-04-25T12:26:49;3.20;;;2.10;;
78740;SDS011;68062;48.726;9.370;2023-04-25T12:29:18;3.20;;;2.40;;
78740;SDS011;68062;48.726;9.370;2023-04-25T12:31:47;2.80;;;2.30;;
78740;SDS011;68062;48.726;9.370;2023-04-25T12:34:14;2.80;;;2.00;;
78740;SDS011;68062;48.726;9.370;2023-04-25T12:36:41;4.40;;;2.73;;
78740;SDS011;68062;48.726;9.370;2023-04-25T12:39:07;2.87;;;2.67;;
78740;SDS011;68062;48.726;9.370;2023-04-25T12:41:35;2.80;;;2.60;;
78740;SDS011;68062;48.726;9.370;2023-04-25T12:44:03;4.10;;;2.83;;
78740;SDS011;68062;48.726;9.370;2023-04-25T12:46:30;3.33;;;2.37;;
78740;SDS011;68062;48.726;9.370;2023-04-25T12:48:58;3.73;;;2.93;;
78740;SDS011;68062;48.726;9.370;2023-04-25T12:51:25;3.93;;;3.47;;
78740;SDS011;68062;48.726;9.370;2023-04-25T12:53:53;3.57;;;3.37;;
78740;SDS011;68062;48.726;9.370;2023-04-25T12:56:19;5.60;;;4.33;;
78740;SDS011;68062;48.726;9.370;2023-04-25T12:58:46;4.03;;;3.30;;
78740;SDS011;68062;48.726;9.370;2023-04-25T13:01:13;5.20;;;3.93;;
78740;SDS011;68062;48.726;9.370;2023-04-25T13:03:40;3.83;;;2.90;;
78740;SDS011;68062;48.726;9.370;2023-04-25T13:06:08;3.47;;;3.30;;
78740;SDS011;68062;48.726;9.370;2023-04-25T13:08:35;4.07;;;3.53;;
78740;SDS011;68062;48.726;9.370;2023-04-25T13:11:03;4.00;;;3.67;;
78740;SDS011;68062;48.726;9.370;2023-04-25T13:13:30;5.13;;;3.77;;
78740;SDS011;68062;48.726;9.370;2023-04-25T13:16:00;6.83;;;5.07;;
78740;SDS011;68062;48.726;9.370;2023-04-25T13:18:27;6.10;;;3.87;;
78740;SDS011;68062;48.726;9.370;2023-04-25T13:20:54;4.10;;;3.60;;
78740;SDS011;68062;48.726;9.370;2023-04-25T13:23:22;5.27;;;4.20;;
78740;SDS011;68062;48.726;9.370;2023-04-25T13:25:48;6.43;;;4.50;;
78740;SDS011;68062;48.726;9.370;2023-04-25T13:28:15;5.43;;;4.07;;
78740;SDS011;68062;48.726;9.370;2023-04-25T13:30:41;6.07;;;4.50;;
78740;SDS011;68062;48.726;9.370;2023-04-25T13:33:09;3.97;;;3.50;;
78740;SDS011;68062;48.726;9.370;2023-04-25T13:35:36;3.70;;;3.27;;
78740;SDS011;68062;48.726;9.370;2023-04-25T13:38:03;4.73;;;3.60;;
78740;SDS011;68062;48.726;9.370;2023-04-25T13:40:31;4.97;;;3.00;;
78740;SDS011;68062;48.726;9.370;2023-04-25T13:42:58;3.80;;;3.33;;
78740;SDS011;68062;48.726;9.370;2023-04-25T13:45:25;6.57;;;3.80;;
78740;SDS011;68062;48.726;9.370;2023-04-25T13:47:52;5.50;;;5.20;;
78740;SDS011;68062;48.726;9.370;2023-04-25T13:50:19;4.43;;;3.60;;
78740;SDS011;68062;48.726;9.370;2023-04-25T13:52:45;6.73;;;5.10;;
78740;SDS011;68062;48.726;9.370;2023-04-25T13:55:12;5.37;;;4.10;;
78740;SDS011;68062;48.726;9.370;2023-04-25T13:57:40;4.50;;;4.20;;
78740;SDS011;68062;48.726;9.370;2023-04-25T14:00:07;5.00;;;3.87;;
78740;SDS011;68062;48.726;9.370;2023-04-25T14:02:35;5.90;;;4.30;;
78740;SDS011;68062;48.726;9.370;2023-04-25T14:05:02;6.67;;;4.13;;
78740;SDS011;68062;48.726;9.370;2023-04-25T14:07:30;6.30;;;4.43;;
78740;SDS011;68062;48.726;9.370;2023-04-25T14:09:57;5.00;;;4.70;;
78740;SDS011;68062;48.726;9.370;2023-04-25T14:12:24;4.70;;;4.13;;
78740;SDS011;68062;48.726;9.370;2023-04-25T14:14:52;6.60;;;4.40;;
78740;SDS011;68062;48.726;9.370;2023-04-25T14:17:19;4.80;;;4.10;;
78740;SDS011;68062;48.726;9.370;2023-04-25T14:19:46;5.67;;;4.40;;
78740;SDS011;68062;48.726;9.370;2023-04-25T14:22:13;7.33;;;4.77;;
78740;SDS011;68062;48.726;9.370;2023-04-25T14:24:40;7.50;;;4.43;;
78740;SDS011;68062;48.726;9.370;2023-04-25T14:27:07;6.70;;;4.60;;
78740;SDS011;68062;48.726;9.370;2023-04-25T14:29:34;6.10;;;5.00;;
78740;SDS011;68062;48.726;9.370;2023-04-25T14:32:02;5.97;;;5.10;;
78740;SDS011;68062;48.726;9.370;2023-04-25T14:34:30;5.43;;;4.80;;
78740;SDS011;68062;48.726;9.370;2023-04-25T14:36:57;4.73;;;4.47;;
78740;SDS011;68062;48.726;9.370;2023-04-25T14:39:24;7.27;;;5.30;;
78740;SDS011;68062;48.726;9.370;2023-04-25T14:41:51;6.23;;;4.47;;
78740;SDS011;68062;48.726;9.370;2023-04-25T14:44:17;6.40;;;4.13;;
78740;SDS011;68062;48.726;9.370;2023-04-25T14:46:44;6.30;;;5.03;;
78740;SDS011;68062;48.726;9.370;2023-04-25T14:49:12;9.30;;;5.53;;
78740;SDS011;68062;48.726;9.370;2023-04-25T14:51:39;8.73;;;5.10;;
78740;SDS011;68062;48.726;9.370;2023-04-25T14:54:06;5.23;;;4.60;;
78740;SDS011;68062;48.726;9.370;2023-04-25T14:56:33;7.60;;;5.93;;
78740;SDS011;68062;48.726;9.370;2023-04-25T14:59:00;6.80;;;5.07;;
78740;SDS011;68062;48.726;9.370;2023-04-25T15:01:26;6.47;;;5.67;;
78740;SDS011;68062;48.726;9.370;2023-04-25T15:03:53;8.40;;;5.67;;
78740;SDS011;68062;48.726;9.370;2023-04-25T15:06:21;8.60;;;5.50;;